sensor_id;sensor_type;location;lat;lon;timestamp;pressure;altitude;pressure_sealevel;temperature;humidity
10460;BME280;54412;51.206;6.888;2022-10-23T00:00:37;100793.72;;;14.81;82.98
10460;BME280;54412;51.206;6.888;2022-10-23T00:03:03;100793.81;;;14.80;83.33
10460;BME280;54412;51.206;6.888;2022-10-23T00:05:29;100795.59;;;14.79;83.10
10460;BME280;54412;51.206;6.888;2022-10-23T00:07:58;100792.72;;;14.70;83.48
10460;BME280;54412;51.206;6.888;2022-10-23T00:10:26;100787.88;;;14.62;83.90
10460;BME280;54412;51.206;6.888;2022-10-23T00:12:53;100790.22;;;14.66;83.60
10460;BME280;54412;51.206;6.888;2022-10-23T00:15:21;100796.50;;;14.65;83.21
10460;BME280;54412;51.206;6.888;2022-10-23T00:17:48;100787.78;;;14.63;83.59
10460;BME280;54412;51.206;6.888;2022-10-23T00:20:15;100785.13;;;14.63;84.02
10460;BME280;54412;51.206;6.888;2022-10-23T00:22:41;100784.00;;;14.68;83.51
10460;BME280;54412;51.206;6.888;2022-10-23T00:25:08;100775.28;;;14.65;83.31
10460;BME280;54412;51.206;6.888;2022-10-23T00:27:35;100775.66;;;14.59;83.42
10460;BME280;54412;51.206;6.888;2022-10-23T00:30:03;100780.84;;;14.61;83.62
10460;BME280;54412;51.206;6.888;2022-10-23T00:32:29;100784.28;;;14.63;83.52
10460;BME280;54412;51.206;6.888;2022-10-23T00:34:55;100783.28;;;14.78;83.14
10460;BME280;54412;51.206;6.888;2022-10-23T00:37:21;100779.81;;;14.63;83.45
10460;BME280;54412;51.206;6.888;2022-10-23T00:39:47;100782.97;;;14.56;83.77
10460;BME280;54412;51.206;6.888;2022-10-23T00:42:18;100779.28;;;14.58;83.59
10460;BME280;54412;51.206;6.888;2022-10-23T00:47:12;100792.88;;;14.66;83.63
10460;BME280;54412;51.206;6.888;2022-10-23T00:49:38;100785.63;;;14.83;83.17
10460;BME280;54412;51.206;6.888;2022-10-23T00:52:09;100782.81;;;14.72;82.92
10460;BME280;54412;51.206;6.888;2022-10-23T00:54:41;100777.66;;;14.56;83.06
10460;BME280;54412;51.206;6.888;2022-10-23T00:57:13;100779.66;;;14.52;83.41
10460;BME280;54412;51.206;6.888;2022-10-23T00:59:39;100768.81;;;14.55;83.58
10460;BME280;54412;51.206;6.888;2022-10-23T01:02:06;100765.69;;;14.63;83.10
10460;BME280;54412;51.206;6.888;2022-10-23T01:04:32;100767.78;;;14.58;83.57
10460;BME280;54412;51.206;6.888;2022-10-23T01:07:19;100764.94;;;14.61;83.43
10460;BME280;54412;51.206;6.888;2022-10-23T01:12:57;100770.34;;;14.59;83.63
10460;BME280;54412;51.206;6.888;2022-10-23T01:15:45;100766.72;;;14.75;82.69
10460;BME280;54412;51.206;6.888;2022-10-23T01:18:27;100765.31;;;14.69;83.03
10460;BME280;54412;51.206;6.888;2022-10-23T01:21:21;100755.78;;;14.79;82.96
10460;BME280;54412;51.206;6.888;2022-10-23T01:27:12;100763.84;;;14.78;82.40
10460;BME280;54412;51.206;6.888;2022-10-23T01:29:47;100769.38;;;14.75;82.78
10460;BME280;54412;51.206;6.888;2022-10-23T01:35:00;100766.66;;;14.62;83.21
10460;BME280;54412;51.206;6.888;2022-10-23T01:37:37;100750.34;;;14.81;83.30
10460;BME280;54412;51.206;6.888;2022-10-23T01:40:11;100738.88;;;14.68;82.77
10460;BME280;54412;51.206;6.888;2022-10-23T01:42:45;100740.38;;;14.57;83.74
10460;BME280;54412;51.206;6.888;2022-10-23T01:45:24;100731.31;;;14.47;83.68
10460;BME280;54412;51.206;6.888;2022-10-23T01:47:55;100723.31;;;14.61;83.57
10460;BME280;54412;51.206;6.888;2022-10-23T01:50:23;100716.06;;;14.78;82.99
10460;BME280;54412;51.206;6.888;2022-10-23T01:52:50;100721.47;;;14.76;83.36
10460;BME280;54412;51.206;6.888;2022-10-23T01:55:16;100722.72;;;14.71;83.52
10460;BME280;54412;51.206;6.888;2022-10-23T01:57:44;100724.78;;;14.53;84.43
10460;BME280;54412;51.206;6.888;2022-10-23T02:00:14;100713.25;;;14.66;83.92
10460;BME280;54412;51.206;6.888;2022-10-23T02:02:42;100713.72;;;14.73;83.90
10460;BME280;54412;51.206;6.888;2022-10-23T02:05:25;100708.09;;;14.78;83.23
10460;BME280;54412;51.206;6.888;2022-10-23T02:07:52;100709.75;;;14.66;83.82
10460;BME280;54412;51.206;6.888;2022-10-23T02:10:20;100696.00;;;14.86;83.50
10460;BME280;54412;51.206;6.888;2022-10-23T02:15:57;100703.44;;;14.54;84.65
10460;BME280;54412;51.206;6.888;2022-10-23T02:18:52;100698.72;;;14.72;83.60
10460;BME280;54412;51.206;6.888;2022-10-23T02:21:53;100694.59;;;14.81;83.53
10460;BME280;54412;51.206;6.888;2022-10-23T02:24:45;100694.78;;;14.65;83.80
10460;BME280;54412;51.206;6.888;2022-10-23T02:27:25;100694.63;;;14.54;84.34
10460;BME280;54412;51.206;6.888;2022-10-23T02:30:02;100691.78;;;14.57;84.62
10460;BME280;54412;51.206;6.888;2022-10-23T02:32:29;100688.84;;;14.74;84.16
10460;BME280;54412;51.206;6.888;2022-10-23T02:34:55;100677.41;;;14.86;82.91
10460;BME280;54412;51.206;6.888;2022-10-23T02:37:21;100668.75;;;14.70;84.21
10460;BME280;54412;51.206;6.888;2022-10-23T02:39:47;100665.06;;;14.73;84.31
10460;BME280;54412;51.206;6.888;2022-10-23T02:42:17;100660.69;;;14.72;84.54
10460;BME280;54412;51.206;6.888;2022-10-23T02:45:06;100651.69;;;14.74;84.49
10460;BME280;54412;51.206;6.888;2022-10-23T02:51:10;100644.97;;;14.68;84.19
10460;BME280;54412;51.206;6.888;2022-10-23T02:53:51;100652.69;;;14.59;84.45
10460;BME280;54412;51.206;6.888;2022-10-23T02:59:10;100642.72;;;14.62;84.78
10460;BME280;54412;51.206;6.888;2022-10-23T03:01:50;100648.78;;;14.64;84.65
10460;BME280;54412;51.206;6.888;2022-10-23T03:04:20;100655.69;;;14.67;85.00
10460;BME280;54412;51.206;6.888;2022-10-23T03:06:50;100650.19;;;14.70;84.79
10460;BME280;54412;51.206;6.888;2022-10-23T03:09:16;100643.91;;;14.58;85.25
10460;BME280;54412;51.206;6.888;2022-10-23T03:11:42;100642.22;;;14.70;84.66
10460;BME280;54412;51.206;6.888;2022-10-23T03:14:10;100644.97;;;14.68;84.56
10460;BME280;54412;51.206;6.888;2022-10-23T03:16:37;100639.03;;;14.65;84.80
10460;BME280;54412;51.206;6.888;2022-10-23T03:19:02;100642.28;;;14.56;85.13
10460;BME280;54412;51.206;6.888;2022-10-23T03:21:28;100635.63;;;14.63;84.88
10460;BME280;54412;51.206;6.888;2022-10-23T03:23:54;100623.97;;;14.78;84.45
10460;BME280;54412;51.206;6.888;2022-10-23T03:26:19;100614.53;;;14.87;83.86
10460;BME280;54412;51.206;6.888;2022-10-23T03:28:45;100609.59;;;14.68;84.19
10460;BME280;54412;51.206;6.888;2022-10-23T03:31:11;100609.81;;;14.65;84.89
10460;BME280;54412;51.206;6.888;2022-10-23T03:33:36;100598.44;;;14.63;84.91
10460;BME280;54412;51.206;6.888;2022-10-23T03:36:02;100599.13;;;14.79;84.02
10460;BME280;54412;51.206;6.888;2022-10-23T03:38:28;100597.59;;;14.62;84.97
10460;BME280;54412;51.206;6.888;2022-10-23T03:40:53;100591.16;;;14.79;84.23
10460;BME280;54412;51.206;6.888;2022-10-23T03:43:19;100591.78;;;14.70;84.71
10460;BME280;54412;51.206;6.888;2022-10-23T03:45:45;100583.31;;;14.78;84.71
10460;BME280;54412;51.206;6.888;2022-10-23T03:48:10;100596.16;;;14.71;84.53
10460;BME280;54412;51.206;6.888;2022-10-23T03:50:36;100596.69;;;14.76;84.83
10460;BME280;54412;51.206;6.888;2022-10-23T03:53:02;100602.69;;;14.53;85.19
10460;BME280;54412;51.206;6.888;2022-10-23T03:55:29;100602.78;;;14.51;85.65
10460;BME280;54412;51.206;6.888;2022-10-23T03:57:54;100607.78;;;14.56;85.42
10460;BME280;54412;51.206;6.888;2022-10-23T04:00:21;100604.41;;;14.66;85.09
10460;BME280;54412;51.206;6.888;2022-10-23T04:02:47;100610.59;;;14.80;84.75
10460;BME280;54412;51.206;6.888;2022-10-23T04:05:13;100607.28;;;14.63;84.60
10460;BME280;54412;51.206;6.888;2022-10-23T04:07:39;100606.84;;;14.57;85.19
10460;BME280;54412;51.206;6.888;2022-10-23T04:10:05;100604.25;;;14.55;85.51
10460;BME280;54412;51.206;6.888;2022-10-23T04:12:31;100613.25;;;14.80;84.81
10460;BME280;54412;51.206;6.888;2022-10-23T04:14:57;100617.31;;;14.98;83.58
10460;BME280;54412;51.206;6.888;2022-10-23T04:17:22;100610.81;;;14.77;84.18
10460;BME280;54412;51.206;6.888;2022-10-23T04:19:48;100601.09;;;14.63;85.03
10460;BME280;54412;51.206;6.888;2022-10-23T04:22:14;100599.19;;;14.65;84.92
10460;BME280;54412;51.206;6.888;2022-10-23T04:24:39;100602.22;;;14.46;85.75
10460;BME280;54412;51.206;6.888;2022-10-23T04:27:11;100608.88;;;14.66;85.47
10460;BME280;54412;51.206;6.888;2022-10-23T04:29:37;100601.63;;;14.55;85.52
10460;BME280;54412;51.206;6.888;2022-10-23T04:32:03;100604.19;;;14.57;85.61
10460;BME280;54412;51.206;6.888;2022-10-23T04:34:29;100596.41;;;14.54;85.37
10460;BME280;54412;51.206;6.888;2022-10-23T04:36:54;100592.19;;;14.51;85.90
10460;BME280;54412;51.206;6.888;2022-10-23T04:39:20;100595.22;;;14.45;85.88
10460;BME280;54412;51.206;6.888;2022-10-23T04:41:46;100588.66;;;14.51;85.57
10460;BME280;54412;51.206;6.888;2022-10-23T04:44:11;100587.47;;;14.42;86.16
10460;BME280;54412;51.206;6.888;2022-10-23T04:46:37;100577.84;;;14.54;85.76
10460;BME280;54412;51.206;6.888;2022-10-23T04:49:03;100577.84;;;14.54;85.79
10460;BME280;54412;51.206;6.888;2022-10-23T04:51:28;100580.91;;;14.48;86.13
10460;BME280;54412;51.206;6.888;2022-10-23T04:53:54;100579.31;;;14.45;86.27
10460;BME280;54412;51.206;6.888;2022-10-23T04:56:20;100575.06;;;14.55;85.96
10460;BME280;54412;51.206;6.888;2022-10-23T04:58:45;100570.72;;;14.54;85.85
10460;BME280;54412;51.206;6.888;2022-10-23T05:01:11;100575.41;;;14.63;85.53
10460;BME280;54412;51.206;6.888;2022-10-23T05:03:37;100559.94;;;14.83;84.12
10460;BME280;54412;51.206;6.888;2022-10-23T05:06:04;100570.22;;;14.62;85.67
10460;BME280;54412;51.206;6.888;2022-10-23T05:08:30;100562.91;;;14.78;85.27
10460;BME280;54412;51.206;6.888;2022-10-23T05:10:56;100559.91;;;14.57;85.95
10460;BME280;54412;51.206;6.888;2022-10-23T05:13:22;100554.84;;;14.92;84.53
10460;BME280;54412;51.206;6.888;2022-10-23T05:15:50;100556.31;;;14.71;85.07
10460;BME280;54412;51.206;6.888;2022-10-23T05:18:33;100557.47;;;14.67;85.41
10460;BME280;54412;51.206;6.888;2022-10-23T05:21:09;100548.47;;;14.82;85.37
10460;BME280;54412;51.206;6.888;2022-10-23T05:23:41;100546.03;;;14.92;84.14
10460;BME280;54412;51.206;6.888;2022-10-23T05:26:08;100545.81;;;14.70;85.12
10460;BME280;54412;51.206;6.888;2022-10-23T05:28:33;100540.50;;;14.70;85.27
10460;BME280;54412;51.206;6.888;2022-10-23T05:31:02;100534.75;;;15.13;83.71
10460;BME280;54412;51.206;6.888;2022-10-23T05:33:30;100531.16;;;15.02;83.77
10460;BME280;54412;51.206;6.888;2022-10-23T05:35:57;100532.44;;;15.09;83.90
10460;BME280;54412;51.206;6.888;2022-10-23T05:38:24;100519.06;;;14.98;84.37
10460;BME280;54412;51.206;6.888;2022-10-23T05:40:51;100519.69;;;15.01;83.93
10460;BME280;54412;51.206;6.888;2022-10-23T05:43:17;100530.19;;;15.15;82.60
10460;BME280;54412;51.206;6.888;2022-10-23T05:45:43;100518.66;;;15.40;81.73
10460;BME280;54412;51.206;6.888;2022-10-23T05:48:09;100512.88;;;15.10;83.00
10460;BME280;54412;51.206;6.888;2022-10-23T05:50:37;100518.06;;;14.99;83.97
10460;BME280;54412;51.206;6.888;2022-10-23T05:53:03;100510.03;;;15.13;82.88
10460;BME280;54412;51.206;6.888;2022-10-23T05:55:28;100515.31;;;15.25;82.13
10460;BME280;54412;51.206;6.888;2022-10-23T05:57:54;100514.16;;;14.92;83.54
10460;BME280;54412;51.206;6.888;2022-10-23T06:00:20;100504.47;;;15.16;82.00
10460;BME280;54412;51.206;6.888;2022-10-23T06:02:45;100509.28;;;15.11;82.51
10460;BME280;54412;51.206;6.888;2022-10-23T06:05:11;100504.50;;;14.91;83.24
10460;BME280;54412;51.206;6.888;2022-10-23T06:07:37;100498.66;;;15.11;82.58
10460;BME280;54412;51.206;6.888;2022-10-23T06:10:04;100493.78;;;14.80;83.38
10460;BME280;54412;51.206;6.888;2022-10-23T06:12:30;100490.69;;;14.86;83.80
10460;BME280;54412;51.206;6.888;2022-10-23T06:14:56;100489.44;;;14.91;82.99
10460;BME280;54412;51.206;6.888;2022-10-23T06:17:22;100497.16;;;15.07;82.93
10460;BME280;54412;51.206;6.888;2022-10-23T06:19:47;100494.28;;;15.10;82.15
10460;BME280;54412;51.206;6.888;2022-10-23T06:22:13;100491.50;;;15.11;82.22
10460;BME280;54412;51.206;6.888;2022-10-23T06:24:39;100492.91;;;15.04;82.51
10460;BME280;54412;51.206;6.888;2022-10-23T06:27:04;100493.03;;;14.90;83.14
10460;BME280;54412;51.206;6.888;2022-10-23T06:29:30;100487.41;;;14.82;83.84
10460;BME280;54412;51.206;6.888;2022-10-23T06:31:56;100487.50;;;14.68;84.32
10460;BME280;54412;51.206;6.888;2022-10-23T06:34:22;100481.66;;;14.88;83.26
10460;BME280;54412;51.206;6.888;2022-10-23T06:36:47;100479.50;;;15.06;82.29
10460;BME280;54412;51.206;6.888;2022-10-23T06:39:13;100480.47;;;15.05;82.53
10460;BME280;54412;51.206;6.888;2022-10-23T06:41:39;100484.53;;;14.98;83.05
10460;BME280;54412;51.206;6.888;2022-10-23T06:44:06;100486.97;;;15.01;83.27
10460;BME280;54412;51.206;6.888;2022-10-23T06:46:34;100484.19;;;15.02;82.86
10460;BME280;54412;51.206;6.888;2022-10-23T06:49:00;100485.44;;;15.09;82.48
10460;BME280;54412;51.206;6.888;2022-10-23T06:51:26;100478.06;;;14.89;83.50
10460;BME280;54412;51.206;6.888;2022-10-23T06:53:55;100471.66;;;14.92;83.66
10460;BME280;54412;51.206;6.888;2022-10-23T06:56:21;100466.22;;;15.06;82.95
10460;BME280;54412;51.206;6.888;2022-10-23T06:58:47;100467.09;;;15.06;83.11
10460;BME280;54412;51.206;6.888;2022-10-23T07:01:14;100463.88;;;15.14;82.34
10460;BME280;54412;51.206;6.888;2022-10-23T07:03:41;100463.03;;;15.13;82.70
10460;BME280;54412;51.206;6.888;2022-10-23T07:06:09;100468.69;;;15.09;82.75
10460;BME280;54412;51.206;6.888;2022-10-23T07:08:36;100467.81;;;15.08;82.71
10460;BME280;54412;51.206;6.888;2022-10-23T07:11:07;100471.41;;;15.32;81.73
10460;BME280;54412;51.206;6.888;2022-10-23T07:13:34;100473.50;;;15.27;81.83
10460;BME280;54412;51.206;6.888;2022-10-23T07:16:13;100472.84;;;15.36;80.95
10460;BME280;54412;51.206;6.888;2022-10-23T07:18:40;100472.34;;;15.44;80.60
10460;BME280;54412;51.206;6.888;2022-10-23T07:21:07;100469.38;;;15.36;80.87
10460;BME280;54412;51.206;6.888;2022-10-23T07:23:33;100472.78;;;15.38;81.68
10460;BME280;54412;51.206;6.888;2022-10-23T07:26:11;100463.94;;;15.74;79.09
10460;BME280;54412;51.206;6.888;2022-10-23T07:28:40;100469.38;;;15.72;79.13
10460;BME280;54412;51.206;6.888;2022-10-23T07:31:07;100481.38;;;15.78;78.72
10460;BME280;54412;51.206;6.888;2022-10-23T07:33:33;100463.47;;;15.80;78.57
10460;BME280;54412;51.206;6.888;2022-10-23T07:35:59;100465.13;;;15.93;77.72
10460;BME280;54412;51.206;6.888;2022-10-23T07:38:25;100470.38;;;16.06;77.31
10460;BME280;54412;51.206;6.888;2022-10-23T07:40:52;100450.91;;;16.05;76.85
10460;BME280;54412;51.206;6.888;2022-10-23T07:43:18;100452.94;;;16.02;77.59
10460;BME280;54412;51.206;6.888;2022-10-23T07:45:48;100446.03;;;15.99;77.66
10460;BME280;54412;51.206;6.888;2022-10-23T07:48:15;100450.69;;;16.19;76.81
10460;BME280;54412;51.206;6.888;2022-10-23T07:50:41;100448.19;;;16.29;76.42
10460;BME280;54412;51.206;6.888;2022-10-23T07:53:13;100443.84;;;16.39;75.41
10460;BME280;54412;51.206;6.888;2022-10-23T07:55:40;100445.81;;;16.37;75.35
10460;BME280;54412;51.206;6.888;2022-10-23T07:58:06;100442.97;;;16.51;74.46
10460;BME280;54412;51.206;6.888;2022-10-23T08:00:32;100448.41;;;16.71;73.89
10460;BME280;54412;51.206;6.888;2022-10-23T08:02:57;100440.44;;;16.94;73.50
10460;BME280;54412;51.206;6.888;2022-10-23T08:05:23;100435.97;;;17.05;72.95
10460;BME280;54412;51.206;6.888;2022-10-23T08:07:49;100439.38;;;16.96;72.62
10460;BME280;54412;51.206;6.888;2022-10-23T08:10:15;100427.44;;;17.33;71.45
10460;BME280;54412;51.206;6.888;2022-10-23T08:12:40;100433.72;;;17.43;70.81
10460;BME280;54412;51.206;6.888;2022-10-23T08:15:06;100433.38;;;17.59;70.45
10460;BME280;54412;51.206;6.888;2022-10-23T08:17:32;100433.34;;;17.70;69.52
10460;BME280;54412;51.206;6.888;2022-10-23T08:19:58;100431.88;;;17.98;68.87
10460;BME280;54412;51.206;6.888;2022-10-23T08:22:23;100444.19;;;18.10;67.35
10460;BME280;54412;51.206;6.888;2022-10-23T08:24:49;100440.69;;;18.30;66.73
10460;BME280;54412;51.206;6.888;2022-10-23T08:27:15;100432.22;;;18.25;66.21
10460;BME280;54412;51.206;6.888;2022-10-23T08:29:40;100435.94;;;18.33;66.15
10460;BME280;54412;51.206;6.888;2022-10-23T08:32:06;100437.50;;;18.56;66.24
10460;BME280;54412;51.206;6.888;2022-10-23T08:34:32;100439.72;;;18.51;65.58
10460;BME280;54412;51.206;6.888;2022-10-23T08:36:57;100436.28;;;18.60;65.20
10460;BME280;54412;51.206;6.888;2022-10-23T08:39:23;100445.56;;;18.87;64.03
10460;BME280;54412;51.206;6.888;2022-10-23T08:41:50;100442.78;;;18.67;64.23
10460;BME280;54412;51.206;6.888;2022-10-23T08:44:35;100457.06;;;18.57;64.64
10460;BME280;54412;51.206;6.888;2022-10-23T08:47:11;100444.13;;;18.52;65.14
10460;BME280;54412;51.206;6.888;2022-10-23T08:50:01;100441.50;;;18.41;65.46
10460;BME280;54412;51.206;6.888;2022-10-23T08:52:32;100440.44;;;18.53;65.07
10460;BME280;54412;51.206;6.888;2022-10-23T08:55:29;100436.34;;;18.29;64.86
10460;BME280;54412;51.206;6.888;2022-10-23T08:58:16;100427.41;;;18.39;64.91
10460;BME280;54412;51.206;6.888;2022-10-23T09:00:45;100430.66;;;18.22;64.30
10460;BME280;54412;51.206;6.888;2022-10-23T09:03:12;100426.81;;;18.36;65.02
10460;BME280;54412;51.206;6.888;2022-10-23T09:08:58;100413.25;;;18.28;64.93
10460;BME280;54412;51.206;6.888;2022-10-23T09:11:43;100413.66;;;18.23;64.79
10460;BME280;54412;51.206;6.888;2022-10-23T09:17:24;100386.59;;;18.48;63.97
10460;BME280;54412;51.206;6.888;2022-10-23T09:20:20;100401.75;;;18.68;63.02
10460;BME280;54412;51.206;6.888;2022-10-23T09:22:48;100387.38;;;18.69;62.47
10460;BME280;54412;51.206;6.888;2022-10-23T09:25:30;100382.00;;;18.90;62.88
10460;BME280;54412;51.206;6.888;2022-10-23T09:28:00;100361.63;;;18.99;62.85
10460;BME280;54412;51.206;6.888;2022-10-23T09:30:33;100368.31;;;18.74;63.22
10460;BME280;54412;51.206;6.888;2022-10-23T09:33:24;100367.59;;;18.72;63.30
10460;BME280;54412;51.206;6.888;2022-10-23T09:36:05;100359.84;;;18.69;64.16
10460;BME280;54412;51.206;6.888;2022-10-23T09:41:17;100359.66;;;18.61;62.60
10460;BME280;54412;51.206;6.888;2022-10-23T09:43:44;100349.75;;;18.72;63.41
10460;BME280;54412;51.206;6.888;2022-10-23T09:46:10;100340.94;;;18.91;63.52
10460;BME280;54412;51.206;6.888;2022-10-23T09:48:38;100349.50;;;18.95;63.40
10460;BME280;54412;51.206;6.888;2022-10-23T09:51:24;100344.47;;;19.11;62.51
10460;BME280;54412;51.206;6.888;2022-10-23T09:53:57;100347.00;;;19.03;62.44
10460;BME280;54412;51.206;6.888;2022-10-23T09:56:39;100345.34;;;19.11;62.48
10460;BME280;54412;51.206;6.888;2022-10-23T10:01:52;100339.72;;;19.24;61.77
10460;BME280;54412;51.206;6.888;2022-10-23T10:04:29;100333.41;;;19.15;63.20
10460;BME280;54412;51.206;6.888;2022-10-23T10:07:00;100339.00;;;19.12;61.82
10460;BME280;54412;51.206;6.888;2022-10-23T10:09:26;100325.78;;;19.11;62.43
10460;BME280;54412;51.206;6.888;2022-10-23T10:11:56;100314.91;;;18.93;62.76
10460;BME280;54412;51.206;6.888;2022-10-23T10:23:06;100310.38;;;18.84;63.18
10460;BME280;54412;51.206;6.888;2022-10-23T10:25:47;100307.88;;;18.92;63.04
10460;BME280;54412;51.206;6.888;2022-10-23T10:31:34;100306.56;;;18.77;63.32
10460;BME280;54412;51.206;6.888;2022-10-23T10:37:12;100309.19;;;18.67;63.51
10460;BME280;54412;51.206;6.888;2022-10-23T10:39:59;100302.31;;;18.65;63.66
10460;BME280;54412;51.206;6.888;2022-10-23T10:42:55;100299.09;;;18.71;63.47
10460;BME280;54412;51.206;6.888;2022-10-23T10:45:46;100293.31;;;18.66;63.54
10460;BME280;54412;51.206;6.888;2022-10-23T10:48:50;100278.28;;;18.65;64.08
10460;BME280;54412;51.206;6.888;2022-10-23T10:51:30;100257.06;;;18.63;63.78
10460;BME280;54412;51.206;6.888;2022-10-23T10:54:31;100256.63;;;18.68;63.71
10460;BME280;54412;51.206;6.888;2022-10-23T10:57:08;100263.97;;;18.75;63.29
10460;BME280;54412;51.206;6.888;2022-10-23T10:59:43;100259.34;;;18.77;63.39
10460;BME280;54412;51.206;6.888;2022-10-23T11:02:34;100250.47;;;18.77;63.51
10460;BME280;54412;51.206;6.888;2022-10-23T11:05:28;100256.66;;;18.77;63.57
10460;BME280;54412;51.206;6.888;2022-10-23T11:08:06;100234.28;;;18.78;63.75
10460;BME280;54412;51.206;6.888;2022-10-23T11:10:49;100226.28;;;18.78;63.46
10460;BME280;54412;51.206;6.888;2022-10-23T11:13:33;100229.09;;;18.77;63.48
10460;BME280;54412;51.206;6.888;2022-10-23T11:16:12;100221.94;;;18.77;63.05
10460;BME280;54412;51.206;6.888;2022-10-23T11:18:43;100227.53;;;18.74;63.56
10460;BME280;54412;51.206;6.888;2022-10-23T11:26:59;100234.13;;;18.61;63.86
10460;BME280;54412;51.206;6.888;2022-10-23T11:38:23;100170.13;;;18.50;65.82
10460;BME280;54412;51.206;6.888;2022-10-23T11:40:57;100179.41;;;18.55;65.62
10460;BME280;54412;51.206;6.888;2022-10-23T11:43:34;100201.78;;;18.54;65.67
10460;BME280;54412;51.206;6.888;2022-10-23T11:46:13;100188.44;;;18.54;64.79
10460;BME280;54412;51.206;6.888;2022-10-23T11:48:43;100208.94;;;18.54;64.71
10460;BME280;54412;51.206;6.888;2022-10-23T11:51:44;100184.06;;;18.53;64.89
10460;BME280;54412;51.206;6.888;2022-10-23T11:57:09;100172.28;;;18.85;64.08
10460;BME280;54412;51.206;6.888;2022-10-23T12:02:32;100188.47;;;19.02;63.09
10460;BME280;54412;51.206;6.888;2022-10-23T12:05:06;100184.50;;;19.25;62.72
10460;BME280;54412;51.206;6.888;2022-10-23T12:07:37;100178.44;;;19.52;61.79
10460;BME280;54412;51.206;6.888;2022-10-23T12:10:19;100171.41;;;19.51;61.83
10460;BME280;54412;51.206;6.888;2022-10-23T12:13:05;100177.16;;;19.56;61.53
10460;BME280;54412;51.206;6.888;2022-10-23T12:15:54;100169.22;;;19.73;60.98
10460;BME280;54412;51.206;6.888;2022-10-23T12:18:20;100168.25;;;19.74;60.88
10460;BME280;54412;51.206;6.888;2022-10-23T12:20:50;100171.47;;;19.78;60.34
10460;BME280;54412;51.206;6.888;2022-10-23T12:23:47;100145.44;;;19.80;60.49
10460;BME280;54412;51.206;6.888;2022-10-23T12:26:37;100147.50;;;19.86;60.56
10460;BME280;54412;51.206;6.888;2022-10-23T12:29:46;100158.19;;;19.59;61.07
10460;BME280;54412;51.206;6.888;2022-10-23T12:32:53;100152.56;;;19.89;60.14
10460;BME280;54412;51.206;6.888;2022-10-23T12:36:05;100144.66;;;19.60;61.10
10460;BME280;54412;51.206;6.888;2022-10-23T12:38:44;100135.63;;;19.61;61.15
10460;BME280;54412;51.206;6.888;2022-10-23T12:41:19;100132.69;;;19.55;61.10
10460;BME280;54412;51.206;6.888;2022-10-23T12:44:00;100129.19;;;19.45;61.32
10460;BME280;54412;51.206;6.888;2022-10-23T12:46:32;100127.50;;;19.44;61.31
10460;BME280;54412;51.206;6.888;2022-10-23T12:49:02;100129.50;;;19.42;61.59
10460;BME280;54412;51.206;6.888;2022-10-23T12:51:33;100130.34;;;19.42;61.63
10460;BME280;54412;51.206;6.888;2022-10-23T12:54:01;100115.69;;;19.27;61.91
10460;BME280;54412;51.206;6.888;2022-10-23T12:56:34;100123.88;;;19.35;62.00
10460;BME280;54412;51.206;6.888;2022-10-23T12:59:00;100125.00;;;19.33;62.07
10460;BME280;54412;51.206;6.888;2022-10-23T13:01:33;100116.13;;;19.42;62.34
10460;BME280;54412;51.206;6.888;2022-10-23T13:04:13;100091.78;;;19.35;62.41
10460;BME280;54412;51.206;6.888;2022-10-23T13:06:42;100095.44;;;19.25;62.46
10460;BME280;54412;51.206;6.888;2022-10-23T13:09:37;100088.56;;;19.22;62.42
10460;BME280;54412;51.206;6.888;2022-10-23T13:12:06;100089.97;;;19.17;62.72
10460;BME280;54412;51.206;6.888;2022-10-23T13:14:41;100095.06;;;19.10;62.92
10460;BME280;54412;51.206;6.888;2022-10-23T13:17:11;100093.75;;;19.14;63.14
10460;BME280;54412;51.206;6.888;2022-10-23T13:19:37;100084.47;;;19.09;63.37
10460;BME280;54412;51.206;6.888;2022-10-23T13:22:17;100084.63;;;19.07;63.21
10460;BME280;54412;51.206;6.888;2022-10-23T13:24:44;100072.94;;;19.18;62.94
10460;BME280;54412;51.206;6.888;2022-10-23T13:27:31;100055.38;;;19.06;63.69
10460;BME280;54412;51.206;6.888;2022-10-23T13:29:57;100058.06;;;19.06;63.42
10460;BME280;54412;51.206;6.888;2022-10-23T13:32:28;100051.59;;;18.99;64.03
10460;BME280;54412;51.206;6.888;2022-10-23T13:34:56;100040.19;;;19.06;63.96
10460;BME280;54412;51.206;6.888;2022-10-23T13:37:24;100046.66;;;19.04;64.03
10460;BME280;54412;51.206;6.888;2022-10-23T13:40:06;100029.22;;;19.00;64.00
10460;BME280;54412;51.206;6.888;2022-10-23T13:42:34;100023.19;;;18.98;64.20
10460;BME280;54412;51.206;6.888;2022-10-23T13:45:00;100024.31;;;18.95;64.29
10460;BME280;54412;51.206;6.888;2022-10-23T13:47:26;100024.16;;;19.06;64.55
10460;BME280;54412;51.206;6.888;2022-10-23T13:49:52;100026.28;;;19.03;64.43
10460;BME280;54412;51.206;6.888;2022-10-23T13:52:21;100017.84;;;18.98;65.01
10460;BME280;54412;51.206;6.888;2022-10-23T13:54:48;100017.16;;;18.96;64.67
10460;BME280;54412;51.206;6.888;2022-10-23T13:57:15;100004.34;;;18.90;65.38
10460;BME280;54412;51.206;6.888;2022-10-23T13:59:41;100001.97;;;18.87;64.86
10460;BME280;54412;51.206;6.888;2022-10-23T14:02:22;99985.34;;;18.93;65.19
10460;BME280;54412;51.206;6.888;2022-10-23T14:04:50;99997.03;;;18.92;65.22
10460;BME280;54412;51.206;6.888;2022-10-23T14:07:15;99994.91;;;18.95;65.29
10460;BME280;54412;51.206;6.888;2022-10-23T14:09:41;99997.59;;;18.95;64.86
10460;BME280;54412;51.206;6.888;2022-10-23T14:12:07;100001.38;;;18.93;65.08
10460;BME280;54412;51.206;6.888;2022-10-23T14:14:33;100001.69;;;18.90;65.79
10460;BME280;54412;51.206;6.888;2022-10-23T14:16:59;99991.56;;;18.93;65.30
10460;BME280;54412;51.206;6.888;2022-10-23T14:19:24;99988.63;;;18.87;65.62